sensor_id;sensor_type;location;lat;lon;timestamp;P1;durP1;ratioP1;P2;durP2;ratioP2
59239;SDS011;45010;53.640;10.578;2023-04-15T00:01:31;0.50;;;0.40;;
59239;SDS011;45010;53.640;10.578;2023-04-15T00:04:33;0.40;;;0.40;;
59239;SDS011;45010;53.640;10.578;2023-04-15T00:07:34;1.40;;;0.30;;
59239;SDS011;45010;53.640;10.578;2023-04-15T00:10:34;0.43;;;0.30;;
59239;SDS011;45010;53.640;10.578;2023-04-15T00:13:35;0.45;;;0.40;;
59239;SDS011;45010;53.640;10.578;2023-04-15T00:16:35;0.30;;;0.20;;
59239;SDS011;45010;53.640;10.578;2023-04-15T00:19:36;0.45;;;0.30;;
59239;SDS011;45010;53.640;10.578;2023-04-15T00:22:36;1.98;;;0.43;;
59239;SDS011;45010;53.640;10.578;2023-04-15T00:25:37;0.30;;;0.30;;
59239;SDS011;45010;53.640;10.578;2023-04-15T00:28:37;0.30;;;0.30;;
59239;SDS011;45010;53.640;10.578;2023-04-15T00:31:38;0.45;;;0.32;;
59239;SDS011;45010;53.640;10.578;2023-04-15T00:34:38;0.40;;;0.40;;
59239;SDS011;45010;53.640;10.578;2023-04-15T00:37:38;0.40;;;0.40;;
59239;SDS011;45010;53.640;10.578;2023-04-15T00:40:39;0.30;;;0.30;;
59239;SDS011;45010;53.640;10.578;2023-04-15T00:43:40;0.40;;;0.22;;
59239;SDS011;45010;53.640;10.578;2023-04-15T00:46:41;0.20;;;0.20;;
59239;SDS011;45010;53.640;10.578;2023-04-15T00:49:42;0.30;;;0.30;;
59239;SDS011;45010;53.640;10.578;2023-04-15T00:52:42;0.68;;;0.50;;
59239;SDS011;45010;53.640;10.578;2023-04-15T00:55:43;0.50;;;0.32;;
59239;SDS011;45010;53.640;10.578;2023-04-15T00:58:43;0.30;;;0.30;;
59239;SDS011;45010;53.640;10.578;2023-04-15T01:01:43;0.70;;;0.50;;
59239;SDS011;45010;53.640;10.578;2023-04-15T01:04:44;0.60;;;0.40;;
59239;SDS011;45010;53.640;10.578;2023-04-15T01:07:45;0.30;;;0.30;;
59239;SDS011;45010;53.640;10.578;2023-04-15T01:10:46;0.35;;;0.35;;
59239;SDS011;45010;53.640;10.578;2023-04-15T01:13:47;0.50;;;0.50;;
59239;SDS011;45010;53.640;10.578;2023-04-15T01:16:48;0.30;;;0.30;;
59239;SDS011;45010;53.640;10.578;2023-04-15T01:19:48;0.30;;;0.30;;
59239;SDS011;45010;53.640;10.578;2023-04-15T01:22:49;0.55;;;0.40;;
59239;SDS011;45010;53.640;10.578;2023-04-15T01:25:50;0.75;;;0.40;;
59239;SDS011;45010;53.640;10.578;2023-04-15T01:28:52;0.82;;;0.38;;
59239;SDS011;45010;53.640;10.578;2023-04-15T01:31:53;0.35;;;0.35;;
59239;SDS011;45010;53.640;10.578;2023-04-15T01:34:54;0.30;;;0.30;;
59239;SDS011;45010;53.640;10.578;2023-04-15T01:37:55;0.30;;;0.30;;
59239;SDS011;45010;53.640;10.578;2023-04-15T01:41:02;0.60;;;0.60;;
59239;SDS011;45010;53.640;10.578;2023-04-15T01:44:03;0.60;;;0.50;;
59239;SDS011;45010;53.640;10.578;2023-04-15T01:47:04;0.52;;;0.32;;
59239;SDS011;45010;53.640;10.578;2023-04-15T01:50:04;0.43;;;0.40;;
59239;SDS011;45010;53.640;10.578;2023-04-15T01:53:05;0.93;;;0.38;;
59239;SDS011;45010;53.640;10.578;2023-04-15T01:56:06;0.50;;;0.50;;
59239;SDS011;45010;53.640;10.578;2023-04-15T01:59:07;0.30;;;0.30;;
59239;SDS011;45010;53.640;10.578;2023-04-15T02:02:07;0.60;;;0.40;;
59239;SDS011;45010;53.640;10.578;2023-04-15T02:05:07;0.68;;;0.30;;
59239;SDS011;45010;53.640;10.578;2023-04-15T02:08:08;0.40;;;0.40;;
59239;SDS011;45010;53.640;10.578;2023-04-15T02:11:09;0.60;;;0.40;;
59239;SDS011;45010;53.640;10.578;2023-04-15T02:14:09;0.50;;;0.40;;
59239;SDS011;45010;53.640;10.578;2023-04-15T02:17:09;0.85;;;0.60;;
59239;SDS011;45010;53.640;10.578;2023-04-15T02:20:10;0.70;;;0.55;;
59239;SDS011;45010;53.640;10.578;2023-04-15T02:23:10;0.50;;;0.40;;
59239;SDS011;45010;53.640;10.578;2023-04-15T02:26:11;0.40;;;0.40;;
59239;SDS011;45010;53.640;10.578;2023-04-15T02:29:11;0.40;;;0.40;;
59239;SDS011;45010;53.640;10.578;2023-04-15T02:32:12;0.43;;;0.40;;
59239;SDS011;45010;53.640;10.578;2023-04-15T02:35:13;0.47;;;0.40;;
59239;SDS011;45010;53.640;10.578;2023-04-15T02:38:13;0.47;;;0.35;;
59239;SDS011;45010;53.640;10.578;2023-04-15T02:41:15;0.63;;;0.50;;
59239;SDS011;45010;53.640;10.578;2023-04-15T02:44:16;0.40;;;0.40;;
59239;SDS011;45010;53.640;10.578;2023-04-15T02:47:19;0.60;;;0.50;;
59239;SDS011;45010;53.640;10.578;2023-04-15T02:50:19;0.40;;;0.40;;
59239;SDS011;45010;53.640;10.578;2023-04-15T02:53:20;0.63;;;0.57;;
59239;SDS011;45010;53.640;10.578;2023-04-15T02:56:21;0.50;;;0.50;;
59239;SDS011;45010;53.640;10.578;2023-04-15T02:59:22;0.38;;;0.35;;
59239;SDS011;45010;53.640;10.578;2023-04-15T03:02:22;1.08;;;0.60;;
59239;SDS011;45010;53.640;10.578;2023-04-15T03:05:23;1.10;;;0.70;;
59239;SDS011;45010;53.640;10.578;2023-04-15T03:08:24;1.02;;;0.60;;
59239;SDS011;45010;53.640;10.578;2023-04-15T03:11:25;0.50;;;0.50;;
59239;SDS011;45010;53.640;10.578;2023-04-15T03:14:28;0.50;;;0.50;;
59239;SDS011;45010;53.640;10.578;2023-04-15T03:17:29;0.60;;;0.60;;
59239;SDS011;45010;53.640;10.578;2023-04-15T03:20:29;0.50;;;0.50;;
59239;SDS011;45010;53.640;10.578;2023-04-15T03:23:30;0.50;;;0.50;;
59239;SDS011;45010;53.640;10.578;2023-04-15T03:26:30;0.77;;;0.70;;
59239;SDS011;45010;53.640;10.578;2023-04-15T03:29:31;0.65;;;0.65;;
59239;SDS011;45010;53.640;10.578;2023-04-15T03:32:31;0.77;;;0.70;;
59239;SDS011;45010;53.640;10.578;2023-04-15T03:35:31;0.77;;;0.73;;
59239;SDS011;45010;53.640;10.578;2023-04-15T03:38:32;0.80;;;0.80;;
59239;SDS011;45010;53.640;10.578;2023-04-15T03:41:32;1.02;;;0.65;;
59239;SDS011;45010;53.640;10.578;2023-04-15T03:44:32;0.88;;;0.68;;
59239;SDS011;45010;53.640;10.578;2023-04-15T03:47:33;0.93;;;0.80;;
59239;SDS011;45010;53.640;10.578;2023-04-15T03:50:33;1.02;;;0.75;;
59239;SDS011;45010;53.640;10.578;2023-04-15T03:53:33;0.63;;;0.63;;
59239;SDS011;45010;53.640;10.578;2023-04-15T03:56:34;0.90;;;0.75;;
59239;SDS011;45010;53.640;10.578;2023-04-15T03:59:34;0.73;;;0.70;;
59239;SDS011;45010;53.640;10.578;2023-04-15T04:02:35;0.52;;;0.52;;
59239;SDS011;45010;53.640;10.578;2023-04-15T04:05:35;0.95;;;0.80;;
59239;SDS011;45010;53.640;10.578;2023-04-15T04:08:37;1.17;;;0.68;;
59239;SDS011;45010;53.640;10.578;2023-04-15T04:11:38;0.90;;;0.70;;
59239;SDS011;45010;53.640;10.578;2023-04-15T04:14:38;0.75;;;0.75;;
59239;SDS011;45010;53.640;10.578;2023-04-15T04:17:38;1.77;;;0.70;;
59239;SDS011;45010;53.640;10.578;2023-04-15T04:20:39;0.90;;;0.70;;
59239;SDS011;45010;53.640;10.578;2023-04-15T04:23:40;0.70;;;0.70;;
59239;SDS011;45010;53.640;10.578;2023-04-15T04:26:41;0.93;;;0.80;;
59239;SDS011;45010;53.640;10.578;2023-04-15T04:29:41;0.85;;;0.80;;
59239;SDS011;45010;53.640;10.578;2023-04-15T04:32:42;0.82;;;0.77;;
59239;SDS011;45010;53.640;10.578;2023-04-15T04:35:42;0.70;;;0.60;;
59239;SDS011;45010;53.640;10.578;2023-04-15T04:38:42;0.95;;;0.90;;
59239;SDS011;45010;53.640;10.578;2023-04-15T04:41:43;0.60;;;0.60;;
59239;SDS011;45010;53.640;10.578;2023-04-15T04:44:43;0.80;;;0.80;;
59239;SDS011;45010;53.640;10.578;2023-04-15T04:47:44;0.88;;;0.75;;
59239;SDS011;45010;53.640;10.578;2023-04-15T04:50:45;1.27;;;0.90;;
59239;SDS011;45010;53.640;10.578;2023-04-15T04:53:46;0.93;;;0.70;;
59239;SDS011;45010;53.640;10.578;2023-04-15T04:56:46;0.82;;;0.82;;
59239;SDS011;45010;53.640;10.578;2023-04-15T04:59:46;0.88;;;0.80;;
59239;SDS011;45010;53.640;10.578;2023-04-15T05:02:47;1.05;;;1.00;;
59239;SDS011;45010;53.640;10.578;2023-04-15T05:05:47;0.80;;;0.70;;
59239;SDS011;45010;53.640;10.578;2023-04-15T05:08:48;1.10;;;0.90;;
59239;SDS011;45010;53.640;10.578;2023-04-15T05:11:48;1.67;;;0.90;;
59239;SDS011;45010;53.640;10.578;2023-04-15T05:14:48;0.80;;;0.80;;
59239;SDS011;45010;53.640;10.578;2023-04-15T05:17:49;0.70;;;0.70;;
59239;SDS011;45010;53.640;10.578;2023-04-15T05:20:49;0.80;;;0.80;;
59239;SDS011;45010;53.640;10.578;2023-04-15T05:23:49;1.23;;;0.88;;
59239;SDS011;45010;53.640;10.578;2023-04-15T05:26:50;1.00;;;0.90;;
59239;SDS011;45010;53.640;10.578;2023-04-15T05:29:50;1.02;;;0.95;;
59239;SDS011;45010;53.640;10.578;2023-04-15T05:32:50;0.95;;;0.93;;
59239;SDS011;45010;53.640;10.578;2023-04-15T05:35:51;1.75;;;1.40;;
59239;SDS011;45010;53.640;10.578;2023-04-15T05:38:52;1.40;;;1.00;;
59239;SDS011;45010;53.640;10.578;2023-04-15T05:41:52;1.05;;;0.95;;
59239;SDS011;45010;53.640;10.578;2023-04-15T05:44:52;1.10;;;0.93;;
59239;SDS011;45010;53.640;10.578;2023-04-15T05:47:53;1.23;;;1.10;;
59239;SDS011;45010;53.640;10.578;2023-04-15T05:50:53;3.65;;;1.20;;
59239;SDS011;45010;53.640;10.578;2023-04-15T05:53:53;2.72;;;1.50;;
59239;SDS011;45010;53.640;10.578;2023-04-15T05:56:54;2.20;;;1.20;;
59239;SDS011;45010;53.640;10.578;2023-04-15T05:59:56;3.03;;;1.63;;
59239;SDS011;45010;53.640;10.578;2023-04-15T06:02:56;3.60;;;3.13;;
59239;SDS011;45010;53.640;10.578;2023-04-15T06:05:57;5.88;;;3.10;;
59239;SDS011;45010;53.640;10.578;2023-04-15T06:08:58;4.20;;;3.03;;
59239;SDS011;45010;53.640;10.578;2023-04-15T06:11:58;4.07;;;2.95;;
59239;SDS011;45010;53.640;10.578;2023-04-15T06:14:59;4.75;;;3.08;;
59239;SDS011;45010;53.640;10.578;2023-04-15T06:17:59;3.53;;;2.58;;
59239;SDS011;45010;53.640;10.578;2023-04-15T06:20:59;4.43;;;2.90;;
59239;SDS011;45010;53.640;10.578;2023-04-15T06:24:00;3.88;;;2.38;;
59239;SDS011;45010;53.640;10.578;2023-04-15T06:27:00;4.25;;;2.35;;
59239;SDS011;45010;53.640;10.578;2023-04-15T06:30:01;3.17;;;2.20;;
59239;SDS011;45010;53.640;10.578;2023-04-15T06:33:02;3.97;;;2.60;;
59239;SDS011;45010;53.640;10.578;2023-04-15T06:36:04;3.70;;;2.40;;
59239;SDS011;45010;53.640;10.578;2023-04-15T06:39:04;3.95;;;2.78;;
59239;SDS011;45010;53.640;10.578;2023-04-15T06:42:05;5.38;;;2.53;;
59239;SDS011;45010;53.640;10.578;2023-04-15T06:45:05;3.92;;;2.40;;
59239;SDS011;45010;53.640;10.578;2023-04-15T06:48:07;4.22;;;2.58;;
59239;SDS011;45010;53.640;10.578;2023-04-15T06:51:07;3.42;;;2.67;;
59239;SDS011;45010;53.640;10.578;2023-04-15T06:54:08;4.82;;;2.70;;
59239;SDS011;45010;53.640;10.578;2023-04-15T06:57:08;4.22;;;2.80;;
59239;SDS011;45010;53.640;10.578;2023-04-15T07:00:09;3.08;;;2.70;;
59239;SDS011;45010;53.640;10.578;2023-04-15T07:03:11;3.75;;;2.83;;
59239;SDS011;45010;53.640;10.578;2023-04-15T07:06:12;4.82;;;2.63;;
59239;SDS011;45010;53.640;10.578;2023-04-15T07:09:12;4.15;;;2.90;;
59239;SDS011;45010;53.640;10.578;2023-04-15T07:12:12;5.70;;;3.20;;
59239;SDS011;45010;53.640;10.578;2023-04-15T07:15:13;3.33;;;2.90;;
59239;SDS011;45010;53.640;10.578;2023-04-15T07:18:13;4.28;;;2.97;;
59239;SDS011;45010;53.640;10.578;2023-04-15T07:21:13;6.25;;;3.35;;
59239;SDS011;45010;53.640;10.578;2023-04-15T07:24:13;16.40;;;7.10;;
59239;SDS011;45010;53.640;10.578;2023-04-15T07:27:17;14.75;;;6.15;;
59239;SDS011;45010;53.640;10.578;2023-04-15T07:30:17;18.15;;;5.90;;
59239;SDS011;45010;53.640;10.578;2023-04-15T07:33:17;22.70;;;6.30;;
59239;SDS011;45010;53.640;10.578;2023-04-15T07:36:18;22.65;;;6.88;;
59239;SDS011;45010;53.640;10.578;2023-04-15T07:39:18;19.70;;;7.28;;
59239;SDS011;45010;53.640;10.578;2023-04-15T07:42:18;14.40;;;7.22;;
59239;SDS011;45010;53.640;10.578;2023-04-15T07:45:19;13.80;;;5.95;;
59239;SDS011;45010;53.640;10.578;2023-04-15T07:48:20;10.95;;;5.30;;
59239;SDS011;45010;53.640;10.578;2023-04-15T07:51:20;13.20;;;5.78;;
59239;SDS011;45010;53.640;10.578;2023-04-15T07:54:20;13.70;;;5.60;;
59239;SDS011;45010;53.640;10.578;2023-04-15T07:57:21;12.23;;;5.32;;
59239;SDS011;45010;53.640;10.578;2023-04-15T08:00:21;12.13;;;5.50;;
59239;SDS011;45010;53.640;10.578;2023-04-15T08:03:22;13.88;;;5.43;;
59239;SDS011;45010;53.640;10.578;2023-04-15T08:06:23;11.57;;;5.00;;
59239;SDS011;45010;53.640;10.578;2023-04-15T08:09:23;11.95;;;5.82;;
59239;SDS011;45010;53.640;10.578;2023-04-15T08:12:23;9.93;;;5.18;;
59239;SDS011;45010;53.640;10.578;2023-04-15T08:15:24;9.27;;;5.22;;
59239;SDS011;45010;53.640;10.578;2023-04-15T08:18:24;10.27;;;5.47;;
59239;SDS011;45010;53.640;10.578;2023-04-15T08:21:25;8.88;;;5.00;;
59239;SDS011;45010;53.640;10.578;2023-04-15T08:24:26;9.35;;;5.05;;
59239;SDS011;45010;53.640;10.578;2023-04-15T08:27:27;10.52;;;4.68;;
59239;SDS011;45010;53.640;10.578;2023-04-15T08:30:27;10.18;;;4.90;;
59239;SDS011;45010;53.640;10.578;2023-04-15T08:33:28;9.05;;;4.80;;
59239;SDS011;45010;53.640;10.578;2023-04-15T08:36:28;8.30;;;5.00;;
59239;SDS011;45010;53.640;10.578;2023-04-15T08:39:28;10.20;;;4.63;;
59239;SDS011;45010;53.640;10.578;2023-04-15T08:42:30;7.85;;;4.60;;
59239;SDS011;45010;53.640;10.578;2023-04-15T08:45:33;7.60;;;4.63;;
59239;SDS011;45010;53.640;10.578;2023-04-15T08:48:35;8.32;;;4.45;;
59239;SDS011;45010;53.640;10.578;2023-04-15T08:51:38;10.73;;;5.18;;
59239;SDS011;45010;53.640;10.578;2023-04-15T08:54:39;9.10;;;4.35;;
59239;SDS011;45010;53.640;10.578;2023-04-15T08:57:41;8.93;;;4.30;;
59239;SDS011;45010;53.640;10.578;2023-04-15T09:00:41;9.93;;;4.60;;
59239;SDS011;45010;53.640;10.578;2023-04-15T09:03:42;7.38;;;4.18;;
59239;SDS011;45010;53.640;10.578;2023-04-15T09:06:43;9.20;;;4.70;;
59239;SDS011;45010;53.640;10.578;2023-04-15T09:09:44;6.75;;;4.13;;
59239;SDS011;45010;53.640;10.578;2023-04-15T09:12:45;9.60;;;4.50;;
59239;SDS011;45010;53.640;10.578;2023-04-15T09:15:45;8.27;;;4.47;;
59239;SDS011;45010;53.640;10.578;2023-04-15T09:18:46;6.63;;;3.90;;
59239;SDS011;45010;53.640;10.578;2023-04-15T09:21:46;8.10;;;4.57;;
59239;SDS011;45010;53.640;10.578;2023-04-15T09:24:47;6.75;;;4.45;;
59239;SDS011;45010;53.640;10.578;2023-04-15T09:27:47;6.97;;;4.20;;
59239;SDS011;45010;53.640;10.578;2023-04-15T09:30:50;6.38;;;3.97;;
59239;SDS011;45010;53.640;10.578;2023-04-15T09:33:54;5.63;;;3.70;;
59239;SDS011;45010;53.640;10.578;2023-04-15T09:36:57;8.65;;;4.57;;
59239;SDS011;45010;53.640;10.578;2023-04-15T09:39:57;5.20;;;3.80;;
59239;SDS011;45010;53.640;10.578;2023-04-15T09:42:58;7.20;;;4.13;;
59239;SDS011;45010;53.640;10.578;2023-04-15T09:45:59;5.28;;;3.92;;
59239;SDS011;45010;53.640;10.578;2023-04-15T09:49:08;5.47;;;4.07;;
59239;SDS011;45010;53.640;10.578;2023-04-15T09:52:12;6.55;;;4.35;;
59239;SDS011;45010;53.640;10.578;2023-04-15T09:55:14;7.78;;;3.83;;
59239;SDS011;45010;53.640;10.578;2023-04-15T09:58:21;5.07;;;3.55;;
59239;SDS011;45010;53.640;10.578;2023-04-15T10:01:23;6.70;;;4.05;;
59239;SDS011;45010;53.640;10.578;2023-04-15T10:04:24;6.25;;;4.28;;
59239;SDS011;45010;53.640;10.578;2023-04-15T10:07:27;5.55;;;3.70;;
59239;SDS011;45010;53.640;10.578;2023-04-15T10:10:28;5.82;;;3.90;;
59239;SDS011;45010;53.640;10.578;2023-04-15T10:13:31;5.40;;;4.00;;
59239;SDS011;45010;53.640;10.578;2023-04-15T10:16:36;6.28;;;3.67;;
59239;SDS011;45010;53.640;10.578;2023-04-15T10:19:41;6.50;;;3.80;;
59239;SDS011;45010;53.640;10.578;2023-04-15T10:22:42;5.25;;;3.63;;
59239;SDS011;45010;53.640;10.578;2023-04-15T10:25:44;5.28;;;3.58;;
59239;SDS011;45010;53.640;10.578;2023-04-15T10:28:45;4.90;;;3.47;;
59239;SDS011;45010;53.640;10.578;2023-04-15T10:31:47;5.53;;;3.47;;
59239;SDS011;45010;53.640;10.578;2023-04-15T10:34:48;5.88;;;4.20;;
59239;SDS011;45010;53.640;10.578;2023-04-15T10:37:50;4.85;;;3.70;;
59239;SDS011;45010;53.640;10.578;2023-04-15T10:40:50;7.65;;;3.67;;
59239;SDS011;45010;53.640;10.578;2023-04-15T10:43:52;5.00;;;3.83;;
59239;SDS011;45010;53.640;10.578;2023-04-15T10:47:00;3.53;;;3.17;;
59239;SDS011;45010;53.640;10.578;2023-04-15T10:50:00;4.53;;;3.17;;
59239;SDS011;45010;53.640;10.578;2023-04-15T10:53:02;4.03;;;2.90;;
59239;SDS011;45010;53.640;10.578;2023-04-15T10:56:03;5.15;;;3.55;;
59239;SDS011;45010;53.640;10.578;2023-04-15T10:59:04;4.47;;;3.70;;
59239;SDS011;45010;53.640;10.578;2023-04-15T11:02:05;5.38;;;3.38;;
59239;SDS011;45010;53.640;10.578;2023-04-15T11:05:06;3.97;;;3.58;;
59239;SDS011;45010;53.640;10.578;2023-04-15T11:08:07;4.25;;;3.60;;
59239;SDS011;45010;53.640;10.578;2023-04-15T11:11:08;4.00;;;3.53;;
59239;SDS011;45010;53.640;10.578;2023-04-15T11:14:13;4.15;;;3.60;;
59239;SDS011;45010;53.640;10.578;2023-04-15T11:17:14;4.15;;;3.25;;
59239;SDS011;45010;53.640;10.578;2023-04-15T11:20:27;4.18;;;3.00;;
59239;SDS011;45010;53.640;10.578;2023-04-15T11:26:33;5.75;;;3.42;;
59239;SDS011;45010;53.640;10.578;2023-04-15T11:29:33;4.10;;;3.30;;
59239;SDS011;45010;53.640;10.578;2023-04-15T11:32:34;4.57;;;3.33;;
59239;SDS011;45010;53.640;10.578;2023-04-15T11:35:34;3.20;;;2.90;;
59239;SDS011;45010;53.640;10.578;2023-04-15T11:38:35;4.45;;;3.45;;
59239;SDS011;45010;53.640;10.578;2023-04-15T11:41:36;4.72;;;3.75;;
59239;SDS011;45010;53.640;10.578;2023-04-15T11:44:37;4.95;;;3.33;;
59239;SDS011;45010;53.640;10.578;2023-04-15T11:47:37;4.00;;;3.33;;
59239;SDS011;45010;53.640;10.578;2023-04-15T11:50:38;4.07;;;3.25;;
59239;SDS011;45010;53.640;10.578;2023-04-15T11:53:41;4.35;;;3.13;;
59239;SDS011;45010;53.640;10.578;2023-04-15T11:56:42;3.83;;;3.22;;
59239;SDS011;45010;53.640;10.578;2023-04-15T11:59:50;4.50;;;3.55;;
59239;SDS011;45010;53.640;10.578;2023-04-15T12:03:10;4.70;;;3.22;;
59239;SDS011;45010;53.640;10.578;2023-04-15T12:06:14;4.43;;;3.20;;
59239;SDS011;45010;53.640;10.578;2023-04-15T12:09:17;4.00;;;3.10;;
59239;SDS011;45010;53.640;10.578;2023-04-15T12:12:19;4.40;;;3.25;;
59239;SDS011;45010;53.640;10.578;2023-04-15T12:15:22;4.65;;;3.47;;
59239;SDS011;45010;53.640;10.578;2023-04-15T12:18:23;3.50;;;3.05;;
59239;SDS011;45010;53.640;10.578;2023-04-15T12:21:25;4.32;;;3.67;;
59239;SDS011;45010;53.640;10.578;2023-04-15T12:24:30;4.05;;;3.20;;
59239;SDS011;45010;53.640;10.578;2023-04-15T12:27:31;3.28;;;2.97;;
59239;SDS011;45010;53.640;10.578;2023-04-15T12:30:31;4.72;;;3.30;;
59239;SDS011;45010;53.640;10.578;2023-04-15T12:33:32;3.40;;;2.80;;
59239;SDS011;45010;53.640;10.578;2023-04-15T12:36:33;3.75;;;3.22;;
59239;SDS011;45010;53.640;10.578;2023-04-15T12:39:43;4.20;;;3.53;;
59239;SDS011;45010;53.640;10.578;2023-04-15T12:42:44;3.22;;;2.70;;
59239;SDS011;45010;53.640;10.578;2023-04-15T12:45:45;3.63;;;3.13;;
59239;SDS011;45010;53.640;10.578;2023-04-15T12:48:45;3.65;;;3.22;;
59239;SDS011;45010;53.640;10.578;2023-04-15T12:51:51;4.53;;;3.50;;
59239;SDS011;45010;53.640;10.578;2023-04-15T12:54:53;4.32;;;3.20;;
59239;SDS011;45010;53.640;10.578;2023-04-15T12:57:54;6.93;;;3.20;;
59239;SDS011;45010;53.640;10.578;2023-04-15T13:00:55;5.70;;;3.33;;
59239;SDS011;45010;53.640;10.578;2023-04-15T13:03:56;4.50;;;2.95;;
59239;SDS011;45010;53.640;10.578;2023-04-15T13:06:56;3.85;;;3.28;;
59239;SDS011;45010;53.640;10.578;2023-04-15T13:09:57;7.20;;;3.42;;
59239;SDS011;45010;53.640;10.578;2023-04-15T13:12:57;4.70;;;3.65;;
59239;SDS011;45010;53.640;10.578;2023-04-15T13:15:57;8.93;;;3.67;;
59239;SDS011;45010;53.640;10.578;2023-04-15T13:18:58;5.65;;;3.95;;
59239;SDS011;45010;53.640;10.578;2023-04-15T13:21:59;4.45;;;3.30;;
59239;SDS011;45010;53.640;10.578;2023-04-15T13:24:59;6.43;;;3.15;;
59239;SDS011;45010;53.640;10.578;2023-04-15T13:28:00;3.78;;;3.13;;
59239;SDS011;45010;53.640;10.578;2023-04-15T13:31:00;3.95;;;3.28;;
59239;SDS011;45010;53.640;10.578;2023-04-15T13:34:00;5.43;;;3.38;;
59239;SDS011;45010;53.640;10.578;2023-04-15T13:37:07;5.95;;;3.10;;
59239;SDS011;45010;53.640;10.578;2023-04-15T13:40:08;4.80;;;3.42;;
59239;SDS011;45010;53.640;10.578;2023-04-15T13:43:09;5.82;;;3.10;;
59239;SDS011;45010;53.640;10.578;2023-04-15T13:46:10;4.07;;;3.13;;
59239;SDS011;45010;53.640;10.578;2023-04-15T13:49:10;4.85;;;3.55;;
59239;SDS011;45010;53.640;10.578;2023-04-15T13:52:11;3.83;;;3.25;;
59239;SDS011;45010;53.640;10.578;2023-04-15T13:55:12;4.55;;;3.33;;
59239;SDS011;45010;53.640;10.578;2023-04-15T13:58:12;4.93;;;3.20;;
59239;SDS011;45010;53.640;10.578;2023-04-15T14:01:12;4.72;;;3.75;;
59239;SDS011;45010;53.640;10.578;2023-04-15T14:04:13;4.25;;;3.83;;
59239;SDS011;45010;53.640;10.578;2023-04-15T14:07:13;4.47;;;3.42;;
59239;SDS011;45010;53.640;10.578;2023-04-15T14:10:13;4.53;;;3.10;;
59239;SDS011;45010;53.640;10.578;2023-04-15T14:13:14;6.20;;;3.47;;
59239;SDS011;45010;53.640;10.578;2023-04-15T14:16:14;5.30;;;3.78;;
59239;SDS011;45010;53.640;10.578;2023-04-15T14:19:14;5.60;;;3.67;;
59239;SDS011;45010;53.640;10.578;2023-04-15T14:22:15;3.45;;;3.10;;
59239;SDS011;45010;53.640;10.578;2023-04-15T14:25:16;4.35;;;3.70;;
59239;SDS011;45010;53.640;10.578;2023-04-15T14:28:16;4.72;;;3.42;;
59239;SDS011;45010;53.640;10.578;2023-04-15T14:31:17;3.70;;;3.20;;
59239;SDS011;45010;53.640;10.578;2023-04-15T14:34:18;3.63;;;3.22;;
59239;SDS011;45010;53.640;10.578;2023-04-15T14:37:21;3.22;;;2.92;;
59239;SDS011;45010;53.640;10.578;2023-04-15T14:40:21;3.45;;;3.15;;
59239;SDS011;45010;53.640;10.578;2023-04-15T14:43:22;4.38;;;3.25;;
59239;SDS011;45010;53.640;10.578;2023-04-15T14:46:22;4.03;;;3.50;;
59239;SDS011;45010;53.640;10.578;2023-04-15T14:49:22;3.78;;;3.47;;
59239;SDS011;45010;53.640;10.578;2023-04-15T14:52:23;3.83;;;3.53;;
59239;SDS011;45010;53.640;10.578;2023-04-15T14:55:23;4.35;;;3.95;;
59239;SDS011;45010;53.640;10.578;2023-04-15T14:58:23;3.70;;;3.38;;
59239;SDS011;45010;53.640;10.578;2023-04-15T15:01:24;3.45;;;3.15;;
59239;SDS011;45010;53.640;10.578;2023-04-15T15:04:24;3.67;;;3.38;;
59239;SDS011;45010;53.640;10.578;2023-04-15T15:07:25;5.40;;;3.30;;
59239;SDS011;45010;53.640;10.578;2023-04-15T15:10:26;4.22;;;3.60;;
59239;SDS011;45010;53.640;10.578;2023-04-15T15:13:27;5.03;;;3.25;;
59239;SDS011;45010;53.640;10.578;2023-04-15T15:16:28;4.72;;;3.60;;
59239;SDS011;45010;53.640;10.578;2023-04-15T15:19:28;3.92;;;3.53;;
59239;SDS011;45010;53.640;10.578;2023-04-15T15:22:28;3.63;;;3.33;;
59239;SDS011;45010;53.640;10.578;2023-04-15T15:25:29;4.65;;;3.60;;
59239;SDS011;45010;53.640;10.578;2023-04-15T15:28:29;4.50;;;3.40;;
59239;SDS011;45010;53.640;10.578;2023-04-15T15:31:29;3.85;;;3.40;;
59239;SDS011;45010;53.640;10.578;2023-04-15T15:34:30;5.45;;;3.53;;
59239;SDS011;45010;53.640;10.578;2023-04-15T15:37:30;3.97;;;3.58;;
59239;SDS011;45010;53.640;10.578;2023-04-15T15:40:30;6.93;;;3.58;;
59239;SDS011;45010;53.640;10.578;2023-04-15T15:43:31;4.38;;;3.65;;
59239;SDS011;45010;53.640;10.578;2023-04-15T15:46:31;4.20;;;3.55;;
59239;SDS011;45010;53.640;10.578;2023-04-15T15:49:31;3.88;;;3.40;;
59239;SDS011;45010;53.640;10.578;2023-04-15T15:52:32;4.47;;;3.42;;
59239;SDS011;45010;53.640;10.578;2023-04-15T15:55:32;6.07;;;3.65;;
59239;SDS011;45010;53.640;10.578;2023-04-15T15:58:32;4.28;;;3.88;;
59239;SDS011;45010;53.640;10.578;2023-04-15T16:01:33;4.00;;;3.55;;
59239;SDS011;45010;53.640;10.578;2023-04-15T16:04:33;4.18;;;3.78;;
59239;SDS011;45010;53.640;10.578;2023-04-15T16:07:34;5.25;;;3.38;;
59239;SDS011;45010;53.640;10.578;2023-04-15T16:10:34;4.28;;;3.60;;
59239;SDS011;45010;53.640;10.578;2023-04-15T16:13:37;4.50;;;4.03;;
59239;SDS011;45010;53.640;10.578;2023-04-15T16:16:37;3.67;;;3.38;;
59239;SDS011;45010;53.640;10.578;2023-04-15T16:19:38;4.40;;;4.00;;
59239;SDS011;45010;53.640;10.578;2023-04-15T16:22:38;4.25;;;3.85;;
59239;SDS011;45010;53.640;10.578;2023-04-15T16:25:40;5.18;;;3.63;;
59239;SDS011;45010;53.640;10.578;2023-04-15T16:28:41;4.35;;;3.95;;
59239;SDS011;45010;53.640;10.578;2023-04-15T16:31:42;4.03;;;3.63;;
59239;SDS011;45010;53.640;10.578;2023-04-15T16:34:42;4.18;;;3.78;;
59239;SDS011;45010;53.640;10.578;2023-04-15T16:37:42;3.97;;;3.58;;
59239;SDS011;45010;53.640;10.578;2023-04-15T16:40:43;4.15;;;3.67;;
59239;SDS011;45010;53.640;10.578;2023-04-15T16:43:43;4.22;;;3.83;;
59239;SDS011;45010;53.640;10.578;2023-04-15T16:46:43;4.05;;;3.67;;
59239;SDS011;45010;53.640;10.578;2023-04-15T16:49:44;3.58;;;2.95;;
59239;SDS011;45010;53.640;10.578;2023-04-15T16:52:44;4.00;;;3.58;;
59239;SDS011;45010;53.640;10.578;2023-04-15T16:55:44;5.90;;;3.78;;
59239;SDS011;45010;53.640;10.578;2023-04-15T16:58:45;4.32;;;3.92;;
59239;SDS011;45010;53.640;10.578;2023-04-15T17:01:45;10.88;;;3.90;;
59239;SDS011;45010;53.640;10.578;2023-04-15T17:04:45;7.22;;;4.30;;
59239;SDS011;45010;53.640;10.578;2023-04-15T17:07:46;7.25;;;3.63;;
59239;SDS011;45010;53.640;10.578;2023-04-15T17:10:46;5.45;;;4.10;;
59239;SDS011;45010;53.640;10.578;2023-04-15T17:13:46;5.07;;;4.22;;
59239;SDS011;45010;53.640;10.578;2023-04-15T17:16:48;6.28;;;4.15;;
59239;SDS011;45010;53.640;10.578;2023-04-15T17:19:48;5.93;;;3.95;;
59239;SDS011;45010;53.640;10.578;2023-04-15T17:22:48;6.80;;;4.07;;
59239;SDS011;45010;53.640;10.578;2023-04-15T17:25:49;5.47;;;3.78;;
59239;SDS011;45010;53.640;10.578;2023-04-15T17:28:50;5.18;;;3.92;;
59239;SDS011;45010;53.640;10.578;2023-04-15T17:31:50;5.45;;;3.50;;
59239;SDS011;45010;53.640;10.578;2023-04-15T17:34:51;3.92;;;3.53;;
59239;SDS011;45010;53.640;10.578;2023-04-15T17:37:51;4.50;;;4.10;;
59239;SDS011;45010;53.640;10.578;2023-04-15T17:40:52;4.55;;;4.10;;
59239;SDS011;45010;53.640;10.578;2023-04-15T17:43:52;4.28;;;3.88;;
59239;SDS011;45010;53.640;10.578;2023-04-15T17:46:52;5.25;;;4.10;;
59239;SDS011;45010;53.640;10.578;2023-04-15T17:49:53;4.43;;;4.00;;
59239;SDS011;45010;53.640;10.578;2023-04-15T17:52:53;6.03;;;3.90;;
59239;SDS011;45010;53.640;10.578;2023-04-15T17:55:53;5.03;;;3.55;;